Time;durP1;ratioP1;P1;durP2;ratioP2;P2;SDS_P1;SDS_P2;PMS_P1;PMS_P2;Temp;Humidity;BMP_temperature;BMP_pressure;BME280_temperature;BME280_humidity;BME280_pressure;Samples;Min_cycle;Max_cycle;Signal;HPM_P1;HPM_P2
2023/07/21 04:30:47;;;;;;;;;3.75;2.00;;;;;25.96;38.98;100920.38;5684517;23;45728;-61
2023/07/21 04:33:13;;;;;;;;;2.25;2.25;;;;;25.88;38.84;100916.75;4960712;28;45278;-63
2023/07/21 04:35:44;;;;;;;;;2.25;2.25;;;;;25.67;39.18;100913.56;4944414;28;46163;-65
2023/07/21 04:38:09;;;;;;;;;2.00;2.00;;;;;25.68;39.65;100918.03;4961797;28;45335;-62
2023/07/21 04:40:34;;;;;;;;;2.00;2.00;;;;;25.78;39.91;100908.63;4960960;28;59349;-62
2023/07/21 04:42:59;;;;;;;;;3.00;3.00;;;;;25.82;39.96;100906.44;4961323;28;56837;-63
2023/07/21 04:45:25;;;;;;;;;1.75;1.75;;;;;25.78;39.70;100903.13;4961500;28;45576;-63
2023/07/21 04:47:53;;;;;;;;;3.00;3.00;;;;;25.76;39.44;100896.97;4961328;28;58573;-62
2023/07/21 04:50:18;;;;;;;;;1.25;1.25;;;;;25.79;39.54;100898.50;4961551;28;45351;-63
2023/07/21 04:52:44;;;;;;;;;2.00;2.00;;;;;25.89;39.41;100894.63;4961417;28;45332;-62
2023/07/21 04:55:09;;;;;;;;;2.50;2.50;;;;;25.93;39.44;100898.75;4960018;28;45565;-63
2023/07/21 04:57:34;;;;;;;;;1.50;1.50;;;;;25.99;38.52;100886.25;4961681;28;46183;-62
2023/07/21 05:00:00;;;;;;;;;1.75;1.75;;;;;26.08;38.75;100896.22;4960758;28;53266;-62
2023/07/21 05:02:28;;;;;;;;;4.75;3.50;;;;;26.18;39.03;100899.72;4961498;28;45177;-63
2023/07/21 05:04:54;;;;;;;;;1.75;1.75;;;;;26.27;38.74;100893.22;4960232;28;45549;-61
2023/07/21 05:07:19;;;;;;;;;1.75;1.75;;;;;26.25;39.11;100880.66;4961157;28;45549;-62
2023/07/21 05:09:45;;;;;;;;;3.50;3.50;;;;;26.33;39.10;100894.44;4960862;28;51606;-61
2023/07/21 05:12:10;;;;;;;;;4.00;4.00;;;;;26.31;38.95;100883.59;4961490;28;45215;-63
2023/07/21 05:14:36;;;;;;;;;2.25;2.25;;;;;26.21;39.62;100895.75;4960253;28;45522;-62
2023/07/21 05:17:01;;;;;;;;;4.50;3.00;;;;;26.13;39.07;100898.47;4959747;28;45307;-62
2023/07/21 05:19:27;;;;;;;;;2.00;2.00;;;;;26.13;39.28;100901.22;4961261;28;45319;-62
2023/07/21 05:21:52;;;;;;;;;2.00;2.00;;;;;26.18;39.37;100907.09;4960500;28;45345;-63
2023/07/21 05:24:17;;;;;;;;;3.50;3.50;;;;;25.95;39.53;100904.94;4960811;28;53259;-62
2023/07/21 05:26:43;;;;;;;;;3.00;3.00;;;;;26.06;39.88;100902.91;4943924;28;46091;-61
2023/07/21 05:29:08;;;;;;;;;1.25;1.25;;;;;25.94;40.06;100913.38;4958626;28;57412;-63
2023/07/21 05:31:35;;;;;;;;;1.75;1.75;;;;;25.58;40.34;100915.38;4960257;28;45405;-63
2023/07/21 05:34:01;;;;;;;;;3.75;2.25;;;;;25.47;41.06;100902.78;4960829;28;45387;-64
2023/07/21 05:36:26;;;;;;;;;2.50;2.50;;;;;25.55;40.81;100902.81;4959767;28;45371;-64
2023/07/21 05:38:52;;;;;;;;;3.50;3.00;;;;;25.70;40.58;100892.13;4960430;28;45438;-64
2023/07/21 05:41:18;;;;;;;;;3.00;3.00;;;;;25.79;40.35;100898.50;4960998;28;45337;-64
2023/07/21 05:43:44;;;;;;;;;2.00;2.00;;;;;25.71;39.17;100888.34;4960090;28;45290;-62
2023/07/21 05:46:10;;;;;;;;;2.75;2.00;;;;;25.63;39.89;100888.31;4960210;28;45659;-62
2023/07/21 05:48:36;;;;;;;;;3.75;3.75;;;;;25.76;39.53;100882.38;4960731;28;45428;-64
2023/07/21 05:51:02;;;;;;;;;3.50;3.50;;;;;25.73;39.69;100882.69;4960575;28;45326;-64
2023/07/21 05:53:27;;;;;;;;;2.50;2.50;;;;;25.72;39.85;100879.09;4960740;28;45327;-64
2023/07/21 05:55:52;;;;;;;;;3.00;3.00;;;;;25.76;39.56;100901.59;4960598;28;45339;-62
2023/07/21 05:58:22;;;;;;;;;4.75;3.00;;;;;25.90;39.95;100903.72;4959366;28;56760;-63
2023/07/21 06:00:48;;;;;;;;;4.25;3.00;;;;;26.06;39.13;100894.66;4960357;28;45298;-63
2023/07/21 06:03:13;;;;;;;;;2.75;2.75;;;;;26.13;38.98;100895.72;4960441;28;45229;-63
2023/07/21 06:05:39;;;;;;;;;4.00;4.00;;;;;26.25;38.69;100897.13;4960347;28;45161;-62
2023/07/21 06:08:04;;;;;;;;;1.50;1.50;;;;;26.38;38.18;100908.53;4959867;28;57188;-64
2023/07/21 06:10:31;;;;;;;;;1.00;1.00;;;;;26.32;37.80;100923.81;4960640;28;45210;-64
2023/07/21 06:12:56;;;;;;;;;2.00;2.00;;;;;26.10;37.93;100916.16;4960264;28;45417;-63
2023/07/21 06:15:24;;;;;;;;;3.25;3.00;;;;;25.99;37.75;100903.59;4959981;28;45386;-63
2023/07/21 06:17:49;;;;;;;;;2.00;2.00;;;;;26.03;38.36;100900.53;4959449;28;45417;-64
2023/07/21 06:20:15;;;;;;;;;2.00;2.00;;;;;26.07;38.37;100901.88;4960169;28;45283;-64
2023/07/21 06:22:40;;;;;;;;;4.00;4.00;;;;;26.06;37.25;100894.66;4960048;28;45462;-63
2023/07/21 06:25:06;;;;;;;;;3.00;3.00;;;;;26.08;37.64;100911.84;4959911;28;46024;-64
2023/07/21 06:27:32;;;;;;;;;4.00;4.00;;;;;25.90;37.47;100914.69;4959884;28;45248;-65
2023/07/21 06:29:58;;;;;;;;;5.00;4.00;;;;;25.83;37.69;100908.16;4958856;28;45248;-65
2023/07/21 06:32:26;;;;;;;;;4.75;3.25;;;;;25.96;38.12;100914.03;4959354;28;45189;-63
2023/07/21 06:34:52;;;;;;;;;6.00;4.25;;;;;26.08;38.08;100900.88;4960048;28;46037;-63
2023/07/21 06:37:17;;;;;;;;;4.00;4.00;;;;;26.26;37.85;100913.50;4959497;28;45362;-63
2023/07/21 06:39:42;;;;;;;;;6.50;5.00;;;;;26.32;37.61;100910.06;4959766;28;45363;-63
2023/07/21 06:42:08;;;;;;;;;3.75;3.75;;;;;26.34;37.53;100930.00;4959777;28;45686;-64
2023/07/21 06:44:34;;;;;;;;;4.25;4.25;;;;;26.43;37.38;100922.66;4958951;28;45339;-64
2023/07/21 06:46:59;;;;;;;;;2.75;2.75;;;;;26.47;37.57;100925.91;4959449;28;45425;-65
2023/07/21 06:49:25;;;;;;;;;4.75;2.50;;;;;26.41;37.65;100919.19;4960139;28;45264;-64
2023/07/21 06:51:50;;;;;;;;;3.25;3.25;;;;;26.36;37.46;100919.72;4959588;28;45533;-65
2023/07/21 06:54:15;;;;;;;;;4.00;4.00;;;;;26.48;37.66;100913.88;4959540;28;58211;-64
2023/07/21 06:56:41;;;;;;;;;3.75;3.75;;;;;26.27;38.22;100915.22;4959549;28;51599;-65
2023/07/21 06:59:06;;;;;;;;;3.25;3.25;;;;;26.29;38.66;100923.28;4959582;28;48382;-64
2023/07/21 07:01:31;;;;;;;;;5.25;4.25;;;;;26.31;38.36;100911.09;4959053;28;45207;-65
2023/07/21 07:03:58;;;;;;;;;3.75;3.75;;;;;26.52;38.11;100915.28;4959561;28;46289;-69
2023/07/21 07:06:24;;;;;;;;;3.50;3.50;;;;;26.69;38.14;100915.13;4951088;28;45599;-71
2023/07/21 07:08:49;;;;;;;;;6.75;5.00;;;;;26.58;37.86;100920.94;4935544;28;46324;-70
2023/07/21 07:11:14;;;;;;;;;3.00;3.00;;;;;26.62;37.97;100922.34;4956773;28;58867;-71
2023/07/21 07:13:40;;;;;;;;;5.00;4.00;;;;;26.63;37.77;100915.78;4958367;28;58660;-69
2023/07/21 07:16:05;;;;;;;;;4.00;3.00;;;;;26.74;38.12;100929.22;4958074;28;45399;-70
2023/07/21 07:18:30;;;;;;;;;3.00;3.00;;;;;26.58;38.03;100925.59;4958272;28;47878;-70
2023/07/21 07:20:56;;;;;;;;;2.25;2.25;;;;;26.56;37.47;100922.13;4958003;28;45401;-70
2023/07/21 07:23:23;;;;;;;;;4.75;4.75;;;;;26.60;38.27;100927.16;4957465;28;45339;-70
2023/07/21 07:25:51;;;;;;;;;2.50;2.50;;;;;26.57;38.17;100921.97;4957445;28;45434;-70
2023/07/21 07:28:18;;;;;;;;;2.50;2.50;;;;;26.51;38.34;100911.66;4958035;28;45293;-69
2023/07/21 07:30:45;;;;;;;;;3.50;3.50;;;;;26.50;38.29;100918.19;4958209;28;45320;-70
2023/07/21 07:33:11;;;;;;;;;3.75;3.75;;;;;26.46;38.33;100926.94;4958729;28;45335;-69
2023/07/21 07:35:36;;;;;;;;;2.25;1.50;;;;;26.62;38.00;100927.00;4958917;28;45399;-69
2023/07/21 07:38:01;;;;;;;;;3.00;3.00;;;;;26.61;37.86;100931.63;4959977;28;45419;-70
2023/07/21 07:40:26;;;;;;;;;2.75;2.75;;;;;26.66;37.48;100934.72;4961267;28;45400;-69
2023/07/21 07:42:52;;;;;;;;;4.75;3.00;;;;;26.57;38.07;100930.22;4944339;28;45823;-69
2023/07/21 07:45:17;;;;;;;;;4.50;3.00;;;;;26.51;38.74;100941.91;4961823;28;45373;-70
2023/07/21 07:47:44;;;;;;;;;3.75;3.75;;;;;26.57;38.28;100937.63;4962039;28;45362;-61
2023/07/21 07:50:10;;;;;;;;;3.75;3.50;;;;;26.65;38.87;100930.25;4944360;28;46501;-61
2023/07/21 07:52:36;;;;;;;;;3.75;3.75;;;;;26.68;38.47;100940.91;4962250;28;45404;-61
2023/07/21 07:55:02;;;;;;;;;3.50;3.25;;;;;26.82;38.52;100936.63;4944474;28;45526;-61
2023/07/21 07:57:28;;;;;;;;;4.00;4.00;;;;;26.89;38.61;100937.66;4944496;28;45375;-60
2023/07/21 07:59:54;;;;;;;;;3.25;3.25;;;;;26.95;38.76;100945.28;4961404;28;45485;-61
2023/07/21 08:02:20;;;;;;;;;2.50;2.50;;;;;26.92;38.35;100947.50;4944297;28;47925;-61
2023/07/21 08:04:46;;;;;;;;;5.75;3.75;;;;;26.91;38.53;100943.00;4944096;28;45496;-61
2023/07/21 08:07:11;;;;;;;;;5.75;4.50;;;;;26.81;38.33;100936.78;4947009;28;45430;-61
2023/07/21 08:09:36;;;;;;;;;3.75;3.75;;;;;26.90;38.89;100955.88;4961366;28;52902;-61
2023/07/21 08:12:02;;;;;;;;;4.00;4.00;;;;;26.85;38.79;100949.19;4960418;28;45962;-60
2023/07/21 08:14:27;;;;;;;;;4.00;4.00;;;;;26.74;39.28;100956.72;4960438;28;45831;-61
2023/07/21 08:16:53;;;;;;;;;4.00;4.00;;;;;26.74;39.45;100953.13;4961744;28;45380;-62
2023/07/21 08:19:19;;;;;;;;;3.00;3.00;;;;;26.84;39.58;100952.97;4944267;28;46251;-61
2023/07/21 08:21:47;;;;;;;;;4.00;4.00;;;;;26.96;39.21;100957.16;4962004;28;45359;-60
2023/07/21 08:24:13;;;;;;;;;4.75;3.75;;;;;26.92;38.94;100959.34;4961243;28;45228;-60
2023/07/21 08:26:39;;;;;;;;;5.25;3.00;;;;;27.09;38.36;100963.84;4961897;28;45282;-61
2023/07/21 08:29:07;;;;;;;;;3.00;3.00;;;;;27.15;38.79;100967.78;4961619;28;45425;-61
2023/07/21 08:31:32;;;;;;;;;4.25;4.25;;;;;27.13;38.46;100956.13;4960126;28;45390;-61
2023/07/21 08:33:58;;;;;;;;;4.00;4.00;;;;;27.01;38.78;100961.09;4959180;28;46385;-61
2023/07/21 08:36:23;;;;;;;;;4.00;4.00;;;;;26.97;39.47;100956.94;4961546;28;45513;-59
2023/07/21 08:38:50;;;;;;;;;4.25;4.25;;;;;27.10;38.87;100957.31;4943067;28;45685;-61
2023/07/21 08:41:20;;;;;;;;;4.75;4.75;;;;;27.13;38.88;100958.88;4943474;28;47817;-61
2023/07/21 08:43:49;;;;;;;;;4.00;4.00;;;;;27.29;38.78;100961.59;4961147;28;45390;-60
2023/07/21 08:46:15;;;;;;;;;4.25;4.25;;;;;27.39;38.69;100951.25;4943530;28;45521;-60
2023/07/21 08:48:41;;;;;;;;;4.50;4.50;;;;;27.34;39.15;100952.81;4960775;28;45429;-61
2023/07/21 08:51:06;;;;;;;;;5.25;4.25;;;;;27.30;39.19;100949.56;4960884;28;46105;-60
2023/07/21 08:53:32;;;;;;;;;4.50;4.50;;;;;27.40;38.95;100950.22;4961148;28;45394;-61
2023/07/21 08:55:59;;;;;;;;;3.75;3.75;;;;;27.47;38.46;100951.25;4961033;28;45216;-61
2023/07/21 08:58:26;;;;;;;;;4.75;4.75;;;;;27.62;38.23;100950.56;4941674;28;46721;-62
2023/07/21 09:00:52;;;;;;;;;8.50;4.50;;;;;27.81;38.28;100952.94;4959603;28;46022;-61
2023/07/21 09:03:30;;;;;;;;;4.75;4.75;;;;;27.89;38.12;100947.41;4942786;28;45396;-62
2023/07/21 09:05:57;;;;;;;;;4.50;4.50;;;;;27.79;38.11;100955.00;4951587;28;45407;-60
2023/07/21 09:08:27;;;;;;;;;5.75;4.00;;;;;27.85;37.83;100946.88;4960283;28;45500;-61
2023/07/21 09:10:56;;;;;;;;;6.00;4.00;;;;;27.96;37.96;100953.91;4942236;28;46088;-61
2023/07/21 09:13:22;;;;;;;;;4.50;4.50;;;;;28.05;37.79;100946.47;4960630;28;45259;-62
2023/07/21 09:15:55;;;;;;;;;5.75;4.00;;;;;27.89;37.26;100946.53;4942045;28;51435;-61
2023/07/21 09:18:51;;;;;;;;;5.00;5.00;;;;;28.09;37.30;100945.06;4960524;28;45370;-62
2023/07/21 09:21:21;;;;;;;;;7.00;5.50;;;;;28.17;36.87;100947.81;4944750;28;46283;-61
2023/07/21 09:23:50;;;;;;;;;3.75;3.75;;;;;28.29;37.11;100943.63;4960386;28;45377;-61
2023/07/21 09:26:21;;;;;;;;;5.25;5.25;;;;;28.55;36.98;100943.31;4960529;28;45431;-61
2023/07/21 09:28:47;;;;;;;;;8.25;4.75;;;;;28.49;36.08;100950.41;4960554;28;45455;-61
2023/07/21 09:31:13;;;;;;;;;4.50;4.50;;;;;28.56;35.76;100958.81;4959530;28;45492;-61
2023/07/21 09:33:41;;;;;;;;;4.00;4.00;;;;;28.46;36.09;100960.94;4960628;28;45295;-61
2023/07/21 09:36:15;;;;;;;;;7.00;6.00;;;;;28.56;35.60;100947.78;4960174;28;45407;-61
2023/07/21 09:38:41;;;;;;;;;5.00;5.00;;;;;28.67;35.57;100947.34;4959046;28;45464;-61
2023/07/21 09:41:09;;;;;;;;;2.50;2.50;;;;;28.71;35.06;100950.59;4959866;28;45331;-63
2023/07/21 09:43:35;;;;;;;;;5.25;5.25;;;;;28.71;34.61;100950.59;4960023;28;45288;-62
2023/07/21 09:46:07;;;;;;;;;6.50;4.50;;;;;29.00;34.97;100956.31;4959789;28;45301;-63
2023/07/21 09:48:33;;;;;;;;;5.50;5.00;;;;;29.15;34.66;100940.63;4960267;28;45300;-62
2023/07/21 09:51:04;;;;;;;;;4.25;4.25;;;;;29.25;34.00;100935.72;4959895;28;47037;-61
2023/07/21 09:53:38;;;;;;;;;4.50;4.50;;;;;29.29;33.56;100947.22;4959986;28;45391;-63
2023/07/21 09:56:05;;;;;;;;;5.25;5.25;;;;;29.34;32.91;100962.22;4960265;28;45338;-61
2023/07/21 09:58:33;;;;;;;;;4.50;4.50;;;;;29.27;33.76;100955.69;4942145;28;45464;-63
2023/07/21 10:01:04;;;;;;;;;4.75;4.75;;;;;29.30;33.11;100948.94;4956852;28;45889;-62
2023/07/21 10:03:31;;;;;;;;;7.25;7.25;;;;;29.44;33.65;100956.44;4942270;28;45508;-61
2023/07/21 10:05:58;;;;;;;;;6.00;6.00;;;;;29.66;33.59;100955.53;4942006;28;45461;-63
2023/07/21 10:08:27;;;;;;;;;4.00;4.00;;;;;29.63;32.71;100955.03;4958200;28;45363;-61
2023/07/21 10:10:56;;;;;;;;;3.75;3.75;;;;;29.70;31.91;100948.56;4958804;28;46468;-61
2023/07/21 10:13:24;;;;;;;;;5.25;5.25;;;;;29.73;31.51;100967.53;4959264;28;45601;-62
2023/07/21 10:15:50;;;;;;;;;5.00;5.00;;;;;29.71;31.46;100960.47;4940605;28;45434;-61
2023/07/21 10:18:18;;;;;;;;;3.50;3.50;;;;;29.81;31.32;100962.97;4959507;28;45311;-61
2023/07/21 10:20:49;;;;;;;;;5.00;5.00;;;;;29.91;31.48;100960.78;4959870;28;46300;-62
2023/07/21 10:23:34;;;;;;;;;6.00;4.25;;;;;30.02;31.43;100958.44;4959978;28;45269;-62
2023/07/21 10:26:08;;;;;;;;;5.75;5.75;;;;;30.09;31.23;100953.00;4942308;28;45568;-62
2023/07/21 10:28:43;;;;;;;;;5.50;5.50;;;;;30.16;31.08;100953.94;4959396;28;45505;-61
2023/07/21 10:31:20;;;;;;;;;5.25;5.25;;;;;30.25;31.01;100951.91;4958626;28;45999;-61
2023/07/21 10:34:07;;;;;;;;;5.00;5.00;;;;;30.33;30.53;100955.44;4959611;28;45275;-61
2023/07/21 10:36:42;;;;;;;;;4.00;4.00;;;;;30.38;30.41;100954.81;4959932;28;45405;-62
2023/07/21 10:39:10;;;;;;;;;6.75;5.25;;;;;30.34;30.63;100953.53;4958906;28;45426;-61
2023/07/21 10:41:37;;;;;;;;;4.50;4.50;;;;;30.53;30.39;100944.63;4959499;28;45441;-59
2023/07/21 10:44:05;;;;;;;;;4.00;4.00;;;;;30.56;29.64;100958.06;4952410;28;45252;-61
2023/07/21 10:46:35;;;;;;;;;7.25;5.25;;;;;30.51;29.91;100955.03;4956654;28;45488;-61
2023/07/21 10:49:00;;;;;;;;;8.50;7.00;;;;;30.51;30.17;100952.28;4956635;28;45591;-60
2023/07/21 10:51:26;;;;;;;;;3.75;3.75;;;;;30.56;30.05;100940.59;4941733;28;47340;-62
2023/07/21 10:53:51;;;;;;;;;5.50;5.50;;;;;30.48;28.94;100955.38;4957572;28;45390;-60
2023/07/21 10:56:16;;;;;;;;;5.50;4.00;;;;;30.61;29.84;100957.50;4959135;28;50830;-59
2023/07/21 10:58:42;;;;;;;;;4.00;4.00;;;;;30.55;29.57;100955.47;4959239;28;45478;-60
2023/07/21 11:01:08;;;;;;;;;4.25;4.25;;;;;30.64;29.08;100954.31;4959167;28;45376;-60
2023/07/21 11:03:33;;;;;;;;;4.00;4.00;;;;;30.79;28.41;100958.75;4959298;28;45300;-60
2023/07/21 11:05:58;;;;;;;;;4.00;4.00;;;;;30.81;27.86;100950.25;4959770;28;45280;-60
2023/07/21 11:08:28;;;;;;;;;6.25;4.50;;;;;30.71;28.13;100955.28;4958814;28;45283;-61
2023/07/21 11:10:54;;;;;;;;;3.50;3.50;;;;;30.64;28.19;100949.63;4959473;28;45898;-60
2023/07/21 11:13:22;;;;;;;;;9.75;6.25;;;;;30.73;28.43;100959.53;4961146;28;45395;-61
2023/07/21 11:15:54;;;;;;;;;15.75;9.00;;;;;30.80;28.22;100946.63;4962724;28;45347;-60
2023/07/21 11:18:21;;;;;;;;;3.75;3.75;;;;;30.67;27.96;100952.03;4945548;28;45294;-61
2023/07/21 11:20:53;;;;;;;;;4.00;4.00;;;;;30.84;28.48;100945.19;4958036;28;46128;-60
2023/07/21 11:23:20;;;;;;;;;4.75;4.75;;;;;31.07;28.28;100947.78;4962489;28;45419;-59
2023/07/21 11:26:04;;;;;;;;;4.00;3.75;;;;;31.13;28.44;100948.91;4962487;28;45323;-60
2023/07/21 11:28:30;;;;;;;;;5.25;4.75;;;;;30.98;28.33;100946.16;4962243;28;45408;-61
2023/07/21 11:30:56;;;;;;;;;4.75;4.75;;;;;31.07;28.22;100946.91;4961375;28;46233;-60
2023/07/21 11:33:22;;;;;;;;;5.00;4.25;;;;;30.99;26.72;100955.31;4962412;28;45350;-59
2023/07/21 11:35:53;;;;;;;;;3.00;3.00;;;;;31.14;26.89;100943.16;4962551;28;45228;-60
2023/07/21 11:38:19;;;;;;;;;3.25;3.25;;;;;31.10;25.77;100938.22;4962197;28;45410;-60
2023/07/21 11:40:48;;;;;;;;;4.75;3.25;;;;;31.36;26.57;100945.91;4962097;28;45651;-60
2023/07/21 11:43:13;;;;;;;;;1.50;1.50;;;;;31.61;25.66;100932.44;4960969;28;45507;-60
2023/07/21 11:45:41;;;;;;;;;3.50;2.25;;;;;31.85;25.80;100935.59;4961916;28;45391;-60
2023/07/21 11:48:24;;;;;;;;;2.75;2.75;;;;;31.87;25.29;100938.19;4962375;28;45454;-60
2023/07/21 11:50:54;;;;;;;;;3.25;3.25;;;;;31.94;24.32;100927.97;4961949;28;46406;-59
2023/07/21 11:53:22;;;;;;;;;4.00;4.00;;;;;32.18;25.96;100926.63;4962260;28;45399;-60
2023/07/21 11:55:48;;;;;;;;;4.75;3.00;;;;;32.13;24.83;100931.91;4960612;28;45377;-59
2023/07/21 11:58:13;;;;;;;;;3.75;2.75;;;;;32.12;24.28;100924.66;4954662;28;45532;-58
2023/07/21 12:00:39;;;;;;;;;4.50;3.50;;;;;32.10;24.40;100913.75;4960082;28;46045;-60
2023/07/21 12:03:06;;;;;;;;;2.25;2.25;;;;;32.19;24.79;100917.25;4961781;28;45633;-58
2023/07/21 12:05:34;;;;;;;;;4.75;4.75;;;;;32.02;24.41;100904.75;4961694;28;45376;-60
2023/07/21 12:08:00;;;;;;;;;3.00;3.00;;;;;32.18;25.16;100912.75;4961743;28;45762;-61
2023/07/21 12:10:26;;;;;;;;;2.75;0.75;;;;;32.20;24.50;100910.63;4961393;28;45362;-60
2023/07/21 12:12:52;;;;;;;;;3.25;3.25;;;;;32.18;24.65;100902.50;4961422;28;45412;-58
2023/07/21 12:15:18;;;;;;;;;2.00;2.00;;;;;32.29;24.74;100906.63;4959325;28;45338;-58
2023/07/21 12:17:43;;;;;;;;;1.50;1.00;;;;;32.35;24.14;100916.88;4961274;28;45389;-59
2023/07/21 12:20:12;;;;;;;;;3.00;3.00;;;;;32.33;25.15;100912.63;4943932;28;47041;-59
2023/07/21 12:22:41;;;;;;;;;2.75;2.75;;;;;32.53;25.19;100910.75;4961616;28;45329;-60
2023/07/21 12:25:07;;;;;;;;;3.75;2.75;;;;;32.59;24.40;100907.97;4943801;28;45502;-58
2023/07/21 12:27:34;;;;;;;;;4.75;3.50;;;;;32.69;23.78;100910.38;4960157;28;45460;-60
2023/07/21 12:30:01;;;;;;;;;3.00;3.00;;;;;32.80;24.93;100906.13;4943451;28;46271;-61
2023/07/21 12:32:26;;;;;;;;;3.00;3.00;;;;;32.83;23.71;100906.59;4961107;28;45513;-60
2023/07/21 12:34:52;;;;;;;;;3.75;3.75;;;;;32.90;24.89;100907.44;4961421;28;45851;-60
2023/07/21 12:37:18;;;;;;;;;4.75;4.75;;;;;33.01;24.06;100909.56;4943908;28;45437;-59
2023/07/21 12:39:46;;;;;;;;;3.00;3.00;;;;;32.81;23.96;100893.97;4942857;28;47068;-60
2023/07/21 12:42:11;;;;;;;;;3.25;2.25;;;;;32.96;24.15;100905.72;4958204;28;45525;-59
2023/07/21 12:44:37;;;;;;;;;3.00;3.00;;;;;32.96;23.33;100908.50;4943349;28;45531;-59
2023/07/21 12:47:02;;;;;;;;;4.00;4.00;;;;;33.01;23.53;100895.66;4959062;28;45363;-59
2023/07/21 12:49:27;;;;;;;;;5.00;3.00;;;;;32.94;23.36;100899.50;4960889;28;46594;-59
2023/07/21 12:51:52;;;;;;;;;3.50;3.50;;;;;32.84;23.19;100897.16;4954211;28;45306;-59
2023/07/21 12:54:18;;;;;;;;;5.50;4.00;;;;;32.96;23.04;100908.50;4955917;28;45284;-59
2023/07/21 12:56:43;;;;;;;;;3.00;3.00;;;;;32.74;23.23;100909.78;4960217;28;57214;-59
2023/07/21 12:59:09;;;;;;;;;4.00;4.00;;;;;32.61;23.01;100903.06;4960936;28;46395;-60
2023/07/21 13:01:34;;;;;;;;;3.50;3.50;;;;;32.53;23.36;100908.81;4959633;28;45490;-60
2023/07/21 13:04:00;;;;;;;;;4.50;3.00;;;;;32.69;23.46;100905.69;4960075;28;58960;-59
2023/07/21 13:06:25;;;;;;;;;3.00;2.75;;;;;32.64;23.08;100904.59;4959719;28;45315;-58
2023/07/21 13:08:51;;;;;;;;;3.75;3.75;;;;;32.77;23.27;100901.84;4960973;28;45788;-59
2023/07/21 13:11:17;;;;;;;;;2.25;2.25;;;;;32.67;22.98;100910.56;4961040;28;45450;-60
2023/07/21 13:13:42;;;;;;;;;2.50;2.50;;;;;32.55;22.83;100915.03;4960929;28;47969;-60
2023/07/21 13:16:07;;;;;;;;;2.75;2.75;;;;;32.43;22.64;100916.69;4959630;28;45457;-58
2023/07/21 13:18:33;;;;;;;;;4.00;2.50;;;;;32.41;23.36;100912.44;4943426;28;47202;-59
2023/07/21 13:20:58;;;;;;;;;3.75;3.75;;;;;32.33;23.22;100905.13;4960764;28;45522;-60
2023/07/21 13:23:23;;;;;;;;;2.75;2.75;;;;;32.25;23.64;100911.72;4961100;28;45371;-60
2023/07/21 13:25:49;;;;;;;;;3.75;3.75;;;;;32.24;23.78;100907.22;4960580;28;45379;-59
2023/07/21 13:28:15;;;;;;;;;4.00;4.00;;;;;32.29;23.69;100895.53;4955975;28;45469;-58
2023/07/21 13:30:40;;;;;;;;;3.75;3.75;;;;;32.31;23.53;100893.41;4960608;28;45581;-61
2023/07/21 13:33:05;;;;;;;;;6.00;3.50;;;;;32.47;23.77;100901.34;4960726;28;45330;-60
2023/07/21 13:35:30;;;;;;;;;5.50;4.50;;;;;32.80;23.49;100900.59;4959381;28;45942;-60
2023/07/21 13:37:56;;;;;;;;;3.00;3.00;;;;;33.15;23.79;100904.88;4960478;28;45366;-60
2023/07/21 13:40:21;;;;;;;;;3.00;2.50;;;;;33.15;22.75;100892.91;4941860;28;54502;-59
2023/07/21 13:42:46;;;;;;;;;3.00;3.00;;;;;33.17;22.48;100897.19;4960644;28;47948;-60
2023/07/21 13:45:12;;;;;;;;;3.00;3.00;;;;;33.11;22.50;100894.38;4959616;28;45492;-59
2023/07/21 13:47:37;;;;;;;;;2.75;2.75;;;;;33.21;22.69;100900.38;4960352;28;46572;-60
2023/07/21 13:50:03;;;;;;;;;2.75;2.75;;;;;33.18;22.37;100889.69;4942635;28;45429;-59
2023/07/21 13:52:28;;;;;;;;;3.50;3.50;;;;;33.54;22.95;100892.03;4960626;28;45540;-58
2023/07/21 13:54:53;;;;;;;;;3.50;3.00;;;;;34.04;22.09;100895.97;4959225;28;45521;-57
2023/07/21 13:57:19;;;;;;;;;2.00;2.00;;;;;33.97;22.36;100897.94;4960174;28;46264;-59
2023/07/21 13:59:45;;;;;;;;;4.25;4.25;;;;;34.05;21.85;100887.41;4959837;28;45296;-60
2023/07/21 14:02:11;;;;;;;;;6.00;4.00;;;;;34.59;22.03;100904.75;4960186;28;45326;-59
2023/07/21 14:04:38;;;;;;;;;3.00;3.00;;;;;34.44;21.56;100899.47;4959770;28;45422;-58
2023/07/21 14:07:03;;;;;;;;;3.00;3.00;;;;;34.34;21.60;100907.44;4943888;28;46240;-59
2023/07/21 14:09:30;;;;;;;;;5.00;4.00;;;;;34.07;22.16;100910.31;4959404;28;45406;-58
2023/07/21 14:11:55;;;;;;;;;2.75;2.75;;;;;34.09;22.03;100912.88;4960047;28;45475;-60
2023/07/21 14:14:20;;;;;;;;;3.25;3.25;;;;;34.41;21.45;100906.34;4942411;28;45773;-60
2023/07/21 14:16:46;;;;;;;;;4.50;3.50;;;;;34.44;20.82;100899.47;4958088;28;45387;-59
2023/07/21 14:19:12;;;;;;;;;3.00;3.00;;;;;34.82;21.06;100917.03;4959653;28;45308;-61
2023/07/21 14:21:37;;;;;;;;;3.00;3.00;;;;;34.82;20.85;100905.88;4959061;28;45386;-59
2023/07/21 14:24:04;;;;;;;;;4.50;3.25;;;;;34.60;20.89;100901.72;4959880;28;45514;-59
2023/07/21 14:26:30;;;;;;;;;2.00;2.00;;;;;34.12;20.79;100902.16;4959251;28;45404;-58
2023/07/21 14:28:55;;;;;;;;;5.75;4.00;;;;;33.79;21.21;100899.50;4959492;28;45476;-60
2023/07/21 14:31:20;;;;;;;;;2.75;2.50;;;;;33.73;21.91;100905.94;4942057;28;45370;-59
2023/07/21 14:33:46;;;;;;;;;4.00;4.00;;;;;33.90;21.44;100916.59;4959638;28;45467;-60
2023/07/21 14:36:11;;;;;;;;;3.25;2.00;;;;;33.78;21.50;100914.47;4958876;28;46041;-59
2023/07/21 14:38:37;;;;;;;;;4.00;4.00;;;;;33.61;22.20;100910.41;4959533;28;45402;-59
2023/07/21 14:41:02;;;;;;;;;2.00;2.00;;;;;33.58;22.63;100924.75;4956057;28;45436;-59
2023/07/21 14:43:29;;;;;;;;;5.50;4.25;;;;;33.67;22.23;100915.13;4959492;28;45479;-61
2023/07/21 14:45:54;;;;;;;;;3.00;3.00;;;;;34.09;22.67;100915.66;4958497;28;45533;-59
2023/07/21 14:48:20;;;;;;;;;6.00;6.00;;;;;34.62;21.70;100912.66;4961520;28;45947;-59
2023/07/21 14:50:48;;;;;;;;;2.75;2.75;;;;;35.19;21.35;100908.81;4945439;28;45462;-60
2023/07/21 14:53:13;;;;;;;;;4.00;4.00;;;;;35.54;21.13;100921.19;4962858;28;45453;-62
2023/07/21 14:55:38;;;;;;;;;4.25;3.00;;;;;35.48;21.38;100924.00;4962958;28;45395;-62
2023/07/21 14:58:03;;;;;;;;;4.00;4.00;;;;;35.14;20.53;100920.63;4962983;28;46975;-61
2023/07/21 15:00:29;;;;;;;;;4.00;4.00;;;;;34.87;21.67;100928.38;4954867;28;48888;-62
2023/07/21 15:02:54;;;;;;;;;5.50;3.25;;;;;34.68;21.93;100915.38;4948485;28;45470;-60
2023/07/21 15:05:20;;;;;;;;;4.25;4.25;;;;;34.76;21.69;100925.44;4961382;28;46783;-60
2023/07/21 15:07:46;;;;;;;;;4.00;4.00;;;;;35.09;21.74;100922.41;4962256;28;45417;-63
2023/07/21 15:10:11;;;;;;;;;7.50;4.25;;;;;35.64;21.03;100927.06;4959540;28;45286;-61
2023/07/21 15:12:37;;;;;;;;;4.00;4.00;;;;;36.02;20.58;100924.09;4957715;28;45416;-62
2023/07/21 15:15:04;;;;;;;;;4.00;4.00;;;;;36.02;20.41;100920.47;4962348;28;46775;-62
2023/07/21 15:17:29;;;;;;;;;4.25;3.75;;;;;36.25;20.16;100919.78;4961896;28;45395;-61
2023/07/21 15:19:55;;;;;;;;;4.25;2.75;;;;;36.37;20.08;100917.91;4962804;28;45401;-61
2023/07/21 15:22:21;;;;;;;;;5.00;5.00;;;;;36.25;19.84;100920.63;4959683;28;45500;-61
2023/07/21 15:24:46;;;;;;;;;2.00;2.00;;;;;36.34;20.10;100912.78;4962667;28;46039;-61
2023/07/21 15:27:12;;;;;;;;;4.25;3.25;;;;;36.63;19.94;100923.13;4962443;28;45311;-61
2023/07/21 15:29:37;;;;;;;;;4.00;4.00;;;;;36.62;19.90;100920.56;4961621;28;45324;-62
2023/07/21 15:32:03;;;;;;;;;3.50;3.50;;;;;36.32;19.80;100924.22;4962652;28;45470;-61
2023/07/21 15:34:28;;;;;;;;;2.25;2.25;;;;;35.98;20.32;100928.44;4962531;28;45824;-62
2023/07/21 15:36:53;;;;;;;;;3.75;2.00;;;;;35.77;20.83;100930.84;4962417;28;45334;-60
2023/07/21 15:39:19;;;;;;;;;2.50;2.50;;;;;35.60;20.70;100925.84;4962415;28;45272;-61
2023/07/21 15:41:44;;;;;;;;;5.00;5.00;;;;;35.62;21.06;100934.84;4962218;28;45354;-62
2023/07/21 15:44:09;;;;;;;;;6.00;5.00;;;;;35.50;20.87;100927.44;4962374;28;47257;-61
2023/07/21 15:46:35;;;;;;;;;3.00;3.00;;;;;35.50;21.18;100927.44;4962269;28;45351;-61
2023/07/21 15:49:01;;;;;;;;;4.25;4.25;;;;;35.64;20.64;100915.09;4945141;28;45188;-61
2023/07/21 15:51:26;;;;;;;;;3.75;3.75;;;;;36.05;20.44;100911.63;4962165;28;45405;-62